Alturas Rancheria, California
Current Conditions -  °F | °C
As of 10:55 PM on Saturday 22 Nov 2014 (Local Time) from KAAT Reporting Station
Broken Clouds Broken Clouds  
Wind Chill: 33°   Ceiling: 2600
Heat Index: 33°   Visibility: 10mi
Dew Point: 29°   Wind: 0mph
Humidity: 85%   Direction: NA
Pressure: 30.26"   Gusts: NA
Location:  41.4836°N, 120.55°W
Report Text: KAAT 230655Z AUTO 00000KT 10SM BKN026 BKN032 01/M02 A3026 RMK AO2 SLP253 T00061017
Loading
Personal Weather Stations






























Interactive Weather Map New forecast layout! Learn more

10-Day Weather Forecast

Advertisements
Track Severe Weather on mobile